Time;durP1;ratioP1;P1;durP2;ratioP2;P2;SDS_P1;SDS_P2;PMS_P1;PMS_P2;Temp;Humidity;BMP_temperature;BMP_pressure;BME280_temperature;BME280_humidity;BME280_pressure;Samples;Min_cycle;Max_cycle;Signal;HPM_P1;HPM_P2
2022/03/08 00:00:25;;;;;;;14.02;9.50;;;1.90;99.90;;;;;;5015344;28;20240;-68
2022/03/08 00:02:51;;;;;;;14.98;9.32;;;1.90;99.90;;;;;;5015001;28;20408;-68
2022/03/08 00:05:18;;;;;;;13.18;9.10;;;2.40;99.90;;;;;;5015604;28;20399;-68
2022/03/08 00:07:46;;;;;;;17.17;9.02;;;1.90;99.90;;;;;;5032875;28;20048;-68
2022/03/08 00:10:12;;;;;;;14.07;9.45;;;2.70;99.90;;;;;;5015168;28;20493;-68
2022/03/08 00:12:38;;;;;;;13.77;8.32;;;1.80;99.90;;;;;;5033464;28;20111;-68
2022/03/08 00:15:11;;;;;;;16.80;9.25;;;1.60;99.90;;;;;;5015290;28;20485;-68
2022/03/08 00:17:38;;;;;;;15.18;9.13;;;1.70;99.90;;;;;;5015159;28;20080;-68
2022/03/08 00:20:08;;;;;;;16.15;9.35;;;1.90;99.90;;;;;;5032700;28;20366;-68
2022/03/08 00:22:35;;;;;;;21.13;9.70;;;2.60;99.90;;;;;;5014891;28;20060;-68
2022/03/08 00:25:01;;;;;;;14.60;9.60;;;1.80;99.90;;;;;;5015186;28;20551;-68
2022/03/08 00:27:28;;;;;;;13.70;9.55;;;2.40;99.90;;;;;;5014990;28;20033;-68
2022/03/08 00:29:56;;;;;;;15.00;9.57;;;1.80;99.90;;;;;;5015308;28;20138;-68
2022/03/08 00:32:22;;;;;;;16.38;9.88;;;1.80;99.90;;;;;;5014797;28;20132;-68
2022/03/08 00:34:48;;;;;;;14.60;9.60;;;2.00;99.90;;;;;;4998859;28;20124;-68
2022/03/08 00:37:14;;;;;;;15.07;10.30;;;1.60;99.90;;;;;;5014450;28;20048;-68
2022/03/08 00:39:40;;;;;;;14.73;9.57;;;;;;;;;;5032337;28;20049;-68
2022/03/08 00:42:11;;;;;;;17.33;10.07;;;1.60;99.90;;;;;;5014731;28;20045;-68
2022/03/08 00:44:38;;;;;;;17.67;9.85;;;1.60;99.90;;;;;;5032923;28;20436;-68
2022/03/08 00:47:05;;;;;;;15.85;10.15;;;1.70;99.90;;;;;;5032274;28;20037;-68
2022/03/08 00:49:31;;;;;;;17.30;10.30;;;2.10;99.90;;;;;;5014731;28;20578;-68
2022/03/08 00:51:57;;;;;;;15.20;10.43;;;1.40;99.90;;;;;;5014432;28;20108;-68
2022/03/08 00:54:23;;;;;;;15.23;10.20;;;;;;;;;;5014539;28;20049;-68
2022/03/08 00:56:49;;;;;;;16.42;10.35;;;1.30;99.90;;;;;;5014593;28;20128;-68
2022/03/08 00:59:15;;;;;;;14.57;9.70;;;1.60;99.90;;;;;;5014340;28;20132;-68
2022/03/08 01:01:41;;;;;;;15.02;10.57;;;1.40;99.90;;;;;;5014335;28;20103;-68
2022/03/08 01:04:07;;;;;;;16.42;10.18;;;;;;;;;;5014181;28;20106;-68
2022/03/08 01:06:32;;;;;;;15.95;10.48;;;1.00;99.90;;;;;;5032030;28;20504;-68
2022/03/08 01:08:58;;;;;;;16.98;10.48;;;1.70;99.90;;;;;;5014185;28;20045;-68
2022/03/08 01:11:24;;;;;;;16.60;10.23;;;1.40;99.90;;;;;;5014178;28;20041;-68
2022/03/08 01:13:50;;;;;;;18.33;11.45;;;1.20;99.90;;;;;;5014020;28;20041;-68
2022/03/08 01:16:16;;;;;;;15.98;10.52;;;;;;;;;;5013648;28;20049;-68
2022/03/08 01:18:42;;;;;;;16.80;10.65;;;;;;;;;;5013917;28;20134;-68
2022/03/08 01:21:08;;;;;;;15.68;10.77;;;1.40;99.90;;;;;;5014185;28;20034;-68
2022/03/08 01:23:35;;;;;;;18.17;11.13;;;1.20;99.90;;;;;;5013976;28;20045;-68
2022/03/08 01:26:01;;;;;;;24.27;10.88;;;1.30;99.90;;;;;;5014181;28;20122;-68
2022/03/08 01:28:27;;;;;;;16.45;10.48;;;;;;;;;;5013874;28;20102;-68
2022/03/08 01:30:52;;;;;;;16.73;11.00;;;0.90;99.90;;;;;;5031646;28;20045;-68
2022/03/08 01:33:18;;;;;;;15.90;10.45;;;1.10;99.90;;;;;;4997923;28;20045;-68
2022/03/08 01:35:44;;;;;;;17.85;10.68;;;1.10;99.90;;;;;;5013977;28;20488;-68
2022/03/08 01:38:09;;;;;;;18.60;10.38;;;0.20;99.90;;;;;;5013792;28;20045;-68
2022/03/08 01:40:35;;;;;;;18.45;10.77;;;;;;;;;;5013630;28;20041;-68
2022/03/08 01:43:02;;;;;;;20.27;10.88;;;0.80;99.90;;;;;;5030869;28;20139;-68
2022/03/08 01:45:28;;;;;;;20.13;10.73;;;;;;;;;;5013823;28;20034;-68
2022/03/08 01:47:54;;;;;;;19.33;10.73;;;;;;;;;;5013678;28;20041;-68
2022/03/08 01:50:20;;;;;;;17.75;11.18;;;0.80;99.90;;;;;;5013753;28;20487;-68
2022/03/08 01:52:46;;;;;;;22.77;11.95;;;0.50;99.90;;;;;;5031288;28;20091;-68
2022/03/08 01:55:14;;;;;;;20.02;11.23;;;0.90;99.90;;;;;;5013889;28;20064;-68
2022/03/08 01:57:41;;;;;;;19.02;11.98;;;-0.10;99.90;;;;;;5013764;28;20057;-68
2022/03/08 02:03:30;;;;;;;25.65;12.50;;;0.70;99.90;;;;;;5001015;28;20078;-61
2022/03/08 02:05:56;;;;;;;20.77;12.48;;;0.00;99.90;;;;;;4993681;28;20607;-62
2022/03/08 02:08:22;;;;;;;19.52;12.20;;;0.90;99.90;;;;;;5011408;28;20096;-61
2022/03/08 02:10:48;;;;;;;20.20;12.45;;;0.90;99.90;;;;;;5011476;28;20066;-61
2022/03/08 02:13:14;;;;;;;20.38;12.50;;;1.00;99.90;;;;;;5011894;28;20389;-61
2022/03/08 02:15:40;;;;;;;21.02;12.18;;;;;;;;;;5011767;28;20044;-61
2022/03/08 02:18:07;;;;;;;21.33;13.35;;;;;;;;;;5011311;28;20127;-61
2022/03/08 02:20:32;;;;;;;20.70;13.15;;;0.80;99.90;;;;;;5011627;28;20033;-61
2022/03/08 02:22:58;;;;;;;21.73;12.80;;;;;;;;;;5011321;28;20042;-61
2022/03/08 02:25:24;;;;;;;22.30;12.82;;;1.00;99.90;;;;;;5010466;28;20045;-61
2022/03/08 02:27:54;;;;;;;20.42;12.88;;;0.90;99.90;;;;;;5014932;28;20046;-61
2022/03/08 02:30:21;;;;;;;22.67;13.98;;;0.90;99.90;;;;;;5015370;28;20133;-61
2022/03/08 02:32:49;;;;;;;26.17;12.75;;;0.90;99.90;;;;;;4997744;28;20400;-61
2022/03/08 02:35:17;;;;;;;19.55;12.50;;;0.80;99.90;;;;;;5015304;28;20042;-61
2022/03/08 02:37:47;;;;;;;25.25;12.93;;;0.90;99.90;;;;;;5015196;28;20038;-61
2022/03/08 02:40:19;;;;;;;24.92;13.13;;;0.40;99.90;;;;;;5015051;28;20449;-68
2022/03/08 02:42:45;;;;;;;21.75;13.15;;;0.90;99.90;;;;;;5015305;28;20108;-69
2022/03/08 02:45:13;;;;;;;23.67;13.30;;;0.90;99.90;;;;;;5015172;28;20038;-69
2022/03/08 02:47:39;;;;;;;22.55;13.75;;;;;;;;;;5015224;28;20046;-69
2022/03/08 02:50:08;;;;;;;23.77;14.13;;;1.10;99.90;;;;;;5014850;28;20045;-69
2022/03/08 02:52:35;;;;;;;25.73;13.95;;;0.90;99.90;;;;;;5014804;28;20054;-69
2022/03/08 02:55:01;;;;;;;22.90;13.48;;;1.20;99.90;;;;;;4997392;28;20129;-69
2022/03/08 02:57:27;;;;;;;23.13;13.95;;;0.60;99.90;;;;;;4997261;28;20038;-69
2022/03/08 02:59:53;;;;;;;24.35;14.10;;;;;;;;;;5014480;28;20041;-69
2022/03/08 03:02:19;;;;;;;25.17;13.70;;;0.10;99.90;;;;;;5014800;28;20060;-69
2022/03/08 03:04:46;;;;;;;26.38;14.77;;;1.10;99.90;;;;;;5014602;28;20485;-69
2022/03/08 03:07:13;;;;;;;22.30;14.00;;;0.30;99.90;;;;;;5014638;28;20048;-69
2022/03/08 03:09:39;;;;;;;21.40;14.27;;;;;;;;;;4997058;28;20424;-69
2022/03/08 03:12:06;;;;;;;23.20;13.95;;;0.50;99.90;;;;;;5014572;28;20049;-69
2022/03/08 03:14:32;;;;;;;24.73;15.02;;;;;;;;;;4996742;28;20056;-69
2022/03/08 03:16:57;;;;;;;26.33;14.57;;;0.60;99.90;;;;;;5014320;28;20470;-69
2022/03/08 03:19:23;;;;;;;25.50;14.70;;;0.40;99.90;;;;;;5014101;28;20045;-69
2022/03/08 03:21:49;;;;;;;25.17;15.10;;;0.50;99.90;;;;;;5014173;28;20045;-70
2022/03/08 03:24:16;;;;;;;24.05;14.90;;;;;;;;;;5014469;28;20038;-69
2022/03/08 03:26:42;;;;;;;22.45;14.75;;;0.50;99.90;;;;;;4996758;28;20049;-69
2022/03/08 03:29:08;;;;;;;25.02;15.00;;;0.20;99.90;;;;;;5014354;28;20038;-69
2022/03/08 03:31:34;;;;;;;23.27;14.25;;;0.40;99.90;;;;;;5014284;28;20041;-69
2022/03/08 03:33:59;;;;;;;26.80;14.88;;;0.50;99.90;;;;;;5014269;28;20104;-69
2022/03/08 03:36:25;;;;;;;27.85;14.82;;;0.30;99.90;;;;;;5013814;28;20121;-69
2022/03/08 03:38:51;;;;;;;23.40;14.95;;;;;;;;;;5013053;28;20042;-69
2022/03/08 03:41:17;;;;;;;24.75;15.30;;;0.50;99.90;;;;;;5014005;28;20060;-69
2022/03/08 03:43:43;;;;;;;25.15;15.60;;;0.50;99.90;;;;;;4996667;28;20053;-68
2022/03/08 03:46:09;;;;;;;27.15;15.23;;;;;;;;;;5013816;28;20046;-68
2022/03/08 03:48:40;;;;;;;24.73;15.02;;;;;;;;;;5013713;28;20046;-68
2022/03/08 03:51:06;;;;;;;24.35;15.00;;;0.30;99.90;;;;;;5013550;28;20117;-69
2022/03/08 03:53:32;;;;;;;25.58;14.90;;;;;;;;;;4996354;28;20149;-61
2022/03/08 03:55:58;;;;;;;26.00;15.38;;;0.10;99.90;;;;;;5013629;28;20404;-60
2022/03/08 03:58:23;;;;;;;26.05;15.65;;;1.30;99.90;;;;;;5013747;28;20045;-60
2022/03/08 04:00:49;;;;;;;23.92;15.02;;;;;;;;;;4996184;28;20034;-61
2022/03/08 04:03:18;;;;;;;25.88;15.45;;;;;;;;;;4996028;28;20054;-60
2022/03/08 04:05:44;;;;;;;28.83;16.10;;;0.30;99.90;;;;;;5013293;28;20489;-60
2022/03/08 04:08:11;;;;;;;24.33;15.43;;;0.60;99.90;;;;;;5013404;28;20141;-60
2022/03/08 04:10:38;;;;;;;27.95;16.25;;;0.20;99.90;;;;;;5013675;28;20091;-60
2022/03/08 04:13:04;;;;;;;28.75;16.35;;;;;;;;;;5013335;28;20041;-60
2022/03/08 04:15:30;;;;;;;28.13;15.73;;;;;;;;;;5013223;28;20081;-60
2022/03/08 04:17:56;;;;;;;27.88;16.13;;;;;;;;;;5012974;28;20512;-60
2022/03/08 04:20:22;;;;;;;27.83;15.93;;;;;;;;;;5012966;28;20468;-60
2022/03/08 04:22:48;;;;;;;29.88;16.35;;;-0.60;99.90;;;;;;5013499;28;20384;-60
2022/03/08 04:25:14;;;;;;;28.30;16.23;;;0.00;99.90;;;;;;5013519;28;20033;-60
2022/03/08 04:27:40;;;;;;;26.75;16.35;;;;;;;;;;5013129;28;20133;-60
2022/03/08 04:30:08;;;;;;;27.63;15.75;;;0.00;99.90;;;;;;5011653;28;20052;-60
2022/03/08 04:32:33;;;;;;;26.40;16.70;;;1.00;99.90;;;;;;5012957;28;20073;-60
2022/03/08 04:34:59;;;;;;;25.95;15.27;;;0.00;99.90;;;;;;5013012;28;20514;-60
2022/03/08 04:37:26;;;;;;;32.05;17.05;;;;;;;;;;4995216;28;20041;-60
2022/03/08 04:39:52;;;;;;;27.60;16.23;;;-0.10;99.90;;;;;;4995147;28;20497;-60
2022/03/08 04:42:17;;;;;;;27.35;16.13;;;0.00;99.90;;;;;;5012972;28;20048;-60
2022/03/08 04:44:43;;;;;;;27.70;16.55;;;;;;;;;;5012894;28;20049;-60
2022/03/08 04:47:09;;;;;;;28.95;15.65;;;-0.20;99.90;;;;;;4995224;28;20045;-60
2022/03/08 04:49:35;;;;;;;31.70;16.73;;;-0.20;99.90;;;;;;5012745;28;20045;-60
2022/03/08 04:52:01;;;;;;;29.52;16.45;;;0.60;99.90;;;;;;4996607;28;20050;-60
2022/03/08 04:54:27;;;;;;;28.42;16.30;;;;;;;;;;4990773;28;20046;-62
2022/03/08 04:56:53;;;;;;;28.77;17.02;;;;;;;;;;4994478;28;20092;-59
2022/03/08 04:59:19;;;;;;;31.52;17.00;;;-0.50;99.90;;;;;;5011912;28;20485;-61
2022/03/08 05:01:44;;;;;;;28.70;17.70;;;-0.30;99.90;;;;;;5011134;28;20104;-60
2022/03/08 05:04:10;;;;;;;28.40;17.75;;;-0.50;99.90;;;;;;4994272;28;20176;-60
2022/03/08 05:06:36;;;;;;;30.88;16.92;;;;;;;;;;5011390;28;20095;-60
2022/03/08 05:09:03;;;;;;;30.77;17.33;;;-0.50;99.90;;;;;;4994529;28;20042;-60
2022/03/08 05:11:29;;;;;;;28.30;17.33;;;;;;;;;;5012449;28;20374;-59
2022/03/08 05:13:55;;;;;;;28.70;17.63;;;;;;;;;;4994494;28;20041;-59
2022/03/08 05:16:21;;;;;;;31.90;17.70;;;;;;;;;;5012224;28;20038;-60
2022/03/08 05:18:47;;;;;;;30.13;17.20;;;-0.60;99.90;;;;;;5012221;28;20049;-59
2022/03/08 05:21:13;;;;;;;33.15;17.33;;;;;;;;;;5012057;28;20108;-60
2022/03/08 05:23:39;;;;;;;31.02;17.23;;;;;;;;;;5011965;28;20092;-60
2022/03/08 05:26:05;;;;;;;28.35;17.25;;;-0.30;99.90;;;;;;5012079;28;20037;-60
2022/03/08 05:28:34;;;;;;;29.13;17.13;;;-0.90;99.90;;;;;;4994476;28;20037;-60
2022/03/08 05:31:00;;;;;;;29.60;17.17;;;;;;;;;;5011589;28;20393;-60
2022/03/08 05:33:26;;;;;;;26.23;15.95;;;;;;;;;;5012440;28;20038;-60
2022/03/08 05:35:52;;;;;;;28.95;16.90;;;;;;;;;;5012173;28;20389;-60
2022/03/08 05:38:18;;;;;;;27.45;15.90;;;-0.50;99.90;;;;;;5011866;28;20041;-60
2022/03/08 05:40:44;;;;;;;29.75;17.45;;;0.30;99.90;;;;;;5011845;28;20117;-60
2022/03/08 05:43:10;;;;;;;27.85;16.77;;;-0.50;99.90;;;;;;4994242;28;20070;-60
2022/03/08 05:45:36;;;;;;;29.05;17.77;;;-0.50;99.90;;;;;;5012044;28;20455;-60
2022/03/08 05:48:02;;;;;;;27.45;16.85;;;;;;;;;;4994131;28;20041;-60
2022/03/08 05:50:28;;;;;;;28.63;17.00;;;;;;;;;;5011597;28;20511;-60
2022/03/08 05:52:54;;;;;;;28.73;17.05;;;;;;;;;;5011904;28;20046;-61
2022/03/08 05:55:20;;;;;;;30.73;17.52;;;-0.50;99.90;;;;;;5011992;28;20112;-60
2022/03/08 05:57:45;;;;;;;28.95;17.15;;;-0.70;99.90;;;;;;5011434;28;20046;-60
2022/03/08 06:00:13;;;;;;;30.75;16.92;;;-0.40;99.90;;;;;;5011342;28;20073;-60
2022/03/08 06:02:39;;;;;;;32.63;17.52;;;;;;;;;;5015186;28;20056;-60
2022/03/08 06:05:05;;;;;;;32.38;17.65;;;-0.50;99.90;;;;;;4998146;28;20042;-60
2022/03/08 06:07:31;;;;;;;56.88;19.58;;;-0.30;99.90;;;;;;4998182;28;20044;-60
2022/03/08 06:09:57;;;;;;;40.08;17.75;;;;;;;;;;5015436;28;20046;-60
2022/03/08 06:12:23;;;;;;;49.38;18.70;;;;;;;;;;5015370;28;20042;-59
2022/03/08 06:14:49;;;;;;;32.88;18.50;;;;;;;;;;5015564;28;20075;-60
2022/03/08 06:17:15;;;;;;;29.48;17.17;;;;;;;;;;5015457;28;20088;-60
2022/03/08 06:19:41;;;;;;;32.40;16.75;;;;;;;;;;4997680;28;20052;-59
2022/03/08 06:22:07;;;;;;;29.05;16.98;;;;;;;;;;5015149;28;20046;-60
2022/03/08 06:24:34;;;;;;;37.10;17.90;;;;;;;;;;5015172;28;20044;-67
2022/03/08 06:27:00;;;;;;;36.08;16.80;;;;;;;;;;5015839;28;20432;-68
2022/03/08 06:29:26;;;;;;;38.55;17.10;;;;;;;;;;5015338;28;20117;-68
2022/03/08 06:31:52;;;;;;;64.57;17.90;;;;;;;;;;4997400;28;20046;-68
2022/03/08 06:34:18;;;;;;;32.40;16.98;;;0.10;99.90;;;;;;5015009;28;20045;-68
2022/03/08 06:36:44;;;;;;;28.45;16.38;;;0.30;99.90;;;;;;5015710;28;20069;-68
2022/03/08 06:39:10;;;;;;;31.23;16.80;;;0.60;99.90;;;;;;5015004;28;20042;-69
2022/03/08 06:41:36;;;;;;;29.13;16.33;;;0.50;99.90;;;;;;5015408;28;20092;-68
2022/03/08 06:44:02;;;;;;;29.83;16.02;;;0.50;99.90;;;;;;5015006;28;20396;-69
2022/03/08 06:46:28;;;;;;;37.08;16.38;;;0.60;99.90;;;;;;5015223;28;20033;-68
2022/03/08 06:48:54;;;;;;;26.70;15.63;;;0.60;99.90;;;;;;5014895;28;20057;-68
2022/03/08 06:51:22;;;;;;;27.50;15.95;;;0.60;99.90;;;;;;5014683;28;20073;-69
2022/03/08 06:53:48;;;;;;;24.10;15.50;;;0.70;99.90;;;;;;5014927;28;20103;-68
2022/03/08 06:56:15;;;;;;;27.25;15.85;;;;;;;;;;4997154;28;20049;-68
2022/03/08 06:58:41;;;;;;;26.00;15.25;;;;;;;;;;5014527;28;20042;-68
2022/03/08 07:01:07;;;;;;;24.58;15.30;;;;;;;;;;5014589;28;20088;-68
2022/03/08 07:03:33;;;;;;;27.85;15.57;;;1.00;99.90;;;;;;5014360;28;20054;-68
2022/03/08 07:05:59;;;;;;;25.42;15.30;;;0.90;99.90;;;;;;5014644;28;20057;-69
2022/03/08 07:08:25;;;;;;;26.73;14.85;;;1.20;99.90;;;;;;5014295;28;20048;-69
2022/03/08 07:10:51;;;;;;;26.25;15.68;;;;;;;;;;5014254;28;20161;-69
2022/03/08 07:13:16;;;;;;;26.58;16.02;;;1.20;99.90;;;;;;5012903;28;20338;-68
2022/03/08 07:15:42;;;;;;;26.00;15.88;;;1.80;99.90;;;;;;4997000;28;20405;-69
2022/03/08 07:18:08;;;;;;;28.17;15.75;;;1.60;99.90;;;;;;5014359;28;20115;-68
2022/03/08 07:20:34;;;;;;;26.63;15.15;;;;;;;;;;5014128;28;20506;-69
2022/03/08 07:23:00;;;;;;;24.77;15.68;;;1.60;99.90;;;;;;4996477;28;20038;-68
2022/03/08 07:25:26;;;;;;;34.47;14.95;;;;;;;;;;5014177;28;20137;-69
2022/03/08 07:27:52;;;;;;;25.90;14.63;;;1.60;99.90;;;;;;5014445;28;20454;-69
2022/03/08 07:30:18;;;;;;;25.70;15.02;;;;;;;;;;5014218;28;20077;-69
2022/03/08 07:32:44;;;;;;;23.35;15.30;;;1.70;99.90;;;;;;5013783;28;20053;-69
2022/03/08 07:35:10;;;;;;;23.45;15.75;;;;;;;;;;5013921;28;20073;-68
2022/03/08 07:37:37;;;;;;;20.77;14.73;;;2.00;99.90;;;;;;5014208;28;20053;-69
2022/03/08 07:40:05;;;;;;;25.83;14.60;;;1.90;99.90;;;;;;5014253;28;20107;-69
2022/03/08 07:42:31;;;;;;;25.95;14.13;;;2.20;99.90;;;;;;4996538;28;20060;-69
2022/03/08 07:44:57;;;;;;;20.92;14.63;;;;;;;;;;5014014;28;20030;-68
2022/03/08 07:47:23;;;;;;;21.20;14.73;;;;;;;;;;5014080;28;20062;-69
2022/03/08 07:49:49;;;;;;;20.33;14.57;;;;;;;;;;5013639;28;20037;-70
2022/03/08 07:52:15;;;;;;;27.08;14.35;;;2.60;99.90;;;;;;5013459;28;20046;-69
2022/03/08 07:54:41;;;;;;;20.92;13.63;;;;;;;;;;5013483;28;20044;-69
2022/03/08 07:57:08;;;;;;;22.35;14.88;;;;;;;;;;4996181;28;20084;-69
2022/03/08 07:59:33;;;;;;;22.33;14.40;;;3.40;99.90;;;;;;4995789;28;20080;-68
2022/03/08 08:01:59;;;;;;;21.15;14.27;;;2.90;99.90;;;;;;5013616;28;20065;-68
2022/03/08 08:04:25;;;;;;;22.13;14.15;;;3.00;99.90;;;;;;5013189;28;20093;-69
2022/03/08 08:06:51;;;;;;;23.05;14.38;;;3.20;99.90;;;;;;5013880;28;20054;-61
2022/03/08 08:09:17;;;;;;;17.55;13.68;;;;;;;;;;5013207;28;20405;-61
2022/03/08 08:11:43;;;;;;;19.58;14.32;;;;;;;;;;5013439;28;20366;-61
2022/03/08 08:14:09;;;;;;;21.40;14.13;;;;;;;;;;5013407;28;20504;-61
2022/03/08 08:16:35;;;;;;;22.02;13.90;;;3.70;99.90;;;;;;5013295;28;20088;-61
2022/03/08 08:19:00;;;;;;;18.30;13.65;;;3.20;99.90;;;;;;5009651;28;20089;-61
2022/03/08 08:21:27;;;;;;;19.90;13.88;;;3.70;99.90;;;;;;5012991;28;20049;-61
2022/03/08 08:23:52;;;;;;;18.63;14.05;;;3.60;99.90;;;;;;5012444;28;20049;-61
2022/03/08 08:26:18;;;;;;;18.55;14.27;;;3.40;99.90;;;;;;5012956;28;20038;-61
2022/03/08 08:28:47;;;;;;;18.13;13.73;;;;;;;;;;5013485;28;20045;-61
2022/03/08 08:31:13;;;;;;;23.10;14.40;;;;;;;;;;4995413;28;20571;-59
2022/03/08 08:33:39;;;;;;;21.27;13.95;;;3.70;99.90;;;;;;5012813;28;20045;-59
2022/03/08 08:36:05;;;;;;;21.27;13.85;;;3.60;99.90;;;;;;5012725;28;20037;-59
2022/03/08 08:38:32;;;;;;;18.70;13.68;;;4.50;99.90;;;;;;5012784;28;20190;-60
2022/03/08 08:40:58;;;;;;;17.80;13.60;;;3.80;99.90;;;;;;5012899;28;20081;-59
2022/03/08 08:43:24;;;;;;;55.55;14.10;;;4.00;99.90;;;;;;5012788;28;20038;-59
2022/03/08 08:45:52;;;;;;;19.13;13.13;;;;;;;;;;5012684;28;20125;-60
2022/03/08 08:48:19;;;;;;;20.52;13.23;;;6.20;99.90;;;;;;5013010;28;20045;-60
2022/03/08 08:50:45;;;;;;;17.85;12.43;;;;;;;;;;5012889;28;20068;-60
2022/03/08 08:53:11;;;;;;;22.33;12.80;;;8.30;99.90;;;;;;5012255;28;20038;-60
2022/03/08 08:55:38;;;;;;;19.50;12.35;;;;;;;;;;5012761;28;20099;-60
2022/03/08 08:58:08;;;;;;;17.88;11.52;;;8.40;95.50;;;;;;5012551;28;20481;-59
2022/03/08 09:00:34;;;;;;;16.90;11.80;;;9.20;95.60;;;;;;5012559;28;20125;-60
2022/03/08 09:03:04;;;;;;;17.92;11.80;;;9.40;95.10;;;;;;5012128;28;20104;-60
2022/03/08 09:05:31;;;;;;;18.08;11.95;;;9.20;90.10;;;;;;5010758;28;20041;-59
2022/03/08 09:07:57;;;;;;;15.88;12.10;;;;;;;;;;5012210;28;20049;-60
2022/03/08 09:10:23;;;;;;;16.65;12.10;;;;;;;;;;4994630;28;20493;-60
2022/03/08 09:12:51;;;;;;;16.05;11.57;;;8.60;96.00;;;;;;5012373;28;20046;-60
2022/03/08 09:15:18;;;;;;;17.58;11.40;;;9.00;81.40;;;;;;4994441;28;20046;-60
2022/03/08 09:17:45;;;;;;;18.05;11.75;;;9.00;96.40;;;;;;5012114;28;20052;-60
2022/03/08 09:20:11;;;;;;;19.45;11.65;;;8.90;81.40;;;;;;5012011;28;20054;-60
2022/03/08 09:22:37;;;;;;;15.75;10.35;;;8.70;95.80;;;;;;4994534;28;20099;-60
2022/03/08 09:25:03;;;;;;;14.90;10.50;;;8.90;80.00;;;;;;4994388;28;20041;-60
2022/03/08 09:27:30;;;;;;;22.45;10.43;;;;;;;;;;5011917;28;20548;-60
2022/03/08 09:29:56;;;;;;;15.23;10.25;;;8.80;78.20;;;;;;5012286;28;20172;-60
2022/03/08 09:32:23;;;;;;;17.92;10.95;;;8.90;78.60;;;;;;5011898;28;20451;-60
2022/03/08 09:34:49;;;;;;;14.77;10.48;;;;;;;;;;5011892;28;20038;-60
2022/03/08 09:37:15;;;;;;;18.42;10.57;;;9.00;93.60;;;;;;4961375;28;20050;-60
2022/03/08 09:39:41;;;;;;;16.20;11.15;;;;;;;;;;5011967;28;20227;-60
2022/03/08 09:42:08;;;;;;;19.25;11.10;;;8.90;91.60;;;;;;5012011;28;20048;-60
2022/03/08 09:44:34;;;;;;;23.27;10.50;;;;;;;;;;5012093;28;20473;-60
2022/03/08 09:47:00;;;;;;;18.95;11.00;;;;;;;;;;5011731;28;20048;-60
2022/03/08 09:49:26;;;;;;;20.00;10.00;;;9.10;94.20;;;;;;5011609;28;20548;-60
2022/03/08 09:51:53;;;;;;;19.20;9.48;;;8.70;89.10;;;;;;5011839;28;20050;-60
2022/03/08 09:54:19;;;;;;;20.55;9.82;;;8.70;92.80;;;;;;5011704;28;20037;-60
2022/03/08 09:56:45;;;;;;;12.77;9.73;;;9.30;93.50;;;;;;5011673;28;20073;-60
2022/03/08 09:59:15;;;;;;;16.08;9.35;;;9.00;76.20;;;;;;5011764;28;20042;-60
2022/03/08 10:01:42;;;;;;;42.63;9.48;;;9.00;75.60;;;;;;5011549;28;20505;-60
2022/03/08 10:04:07;;;;;;;15.48;9.10;;;9.10;93.00;;;;;;5011370;28;20512;-60
2022/03/08 10:06:44;;;;;;;20.65;8.13;;;8.90;74.80;;;;;;5011593;28;20042;-60
2022/03/08 10:09:15;;;;;;;16.35;8.55;;;8.80;92.20;;;;;;4994109;28;20050;-60
2022/03/08 10:11:42;;;;;;;14.45;8.05;;;;;;;;;;5011600;28;20046;-60
2022/03/08 10:14:12;;;;;;;17.70;7.65;;;9.30;84.60;;;;;;4993970;28;20049;-60
2022/03/08 10:16:48;;;;;;;23.10;7.55;;;8.90;81.80;;;;;;5011500;28;20134;-60
2022/03/08 10:19:14;;;;;;;;;;;8.90;72.00;;;;;;5011935;28;20065;-60
2022/03/08 10:21:47;;;;;;;23.67;8.25;;;8.80;70.80;;;;;;5011656;28;19917;-60
2022/03/08 10:24:21;;;;;;;12.15;7.50;;;8.70;76.30;;;;;;5011644;28;20053;-61
2022/03/08 10:26:51;;;;;;;13.40;7.70;;;8.90;72.40;;;;;;5011192;28;20490;-61
2022/03/08 10:29:32;;;;;;;13.23;7.35;;;8.90;91.10;;;;;;4994060;28;20113;-62
2022/03/08 10:32:06;;;;;;;22.95;8.27;;;9.10;78.10;;;;;;5011147;28;20500;-62
2022/03/08 10:34:32;;;;;;;16.70;8.63;;;;;;;;;;5011383;28;20080;-68
2022/03/08 10:37:17;;;;;;;19.10;7.15;;;9.00;69.80;;;;;;5011392;28;20038;-68
2022/03/08 10:39:59;;;;;;;19.30;7.95;;;9.40;89.50;;;;;;5008512;28;20065;-68
2022/03/08 10:42:28;;;;;;;14.77;7.35;;;8.80;87.70;;;;;;5011348;28;20045;-68
2022/03/08 10:45:01;;;;;;;13.40;6.80;;;9.10;67.10;;;;;;5011163;28;20493;-69
2022/03/08 10:47:46;;;;;;;19.85;7.20;;;8.90;86.90;;;;;;5012276;28;20458;-68
2022/03/08 10:50:15;;;;;;;19.42;6.55;;;9.00;65.20;;;;;;4995328;28;20504;-68
2022/03/08 10:52:42;;;;;;;15.93;6.90;;;9.00;64.80;;;;;;4995353;28;20082;-68
2022/03/08 10:55:45;;;;;;;19.52;7.28;;;9.10;86.30;;;;;;4995052;28;20077;-69
2022/03/08 10:58:14;;;;;;;15.20;6.72;;;9.30;66.80;;;;;;4982103;28;20067;-68
2022/03/08 11:00:42;;;;;;;19.10;6.95;;;9.30;66.10;;;;;;4995121;28;20038;-69
2022/03/08 11:03:16;;;;;;;16.75;7.32;;;9.20;85.60;;;;;;4994524;28;20140;-68
2022/03/08 11:05:45;;;;;;;9.43;6.65;;;9.20;84.60;;;;;;4993694;28;20486;-69
2022/03/08 11:08:12;;;;;;;13.15;6.93;;;9.40;64.90;;;;;;4994052;28;20050;-68
2022/03/08 11:10:39;;;;;;;12.38;6.85;;;9.70;78.10;;;;;;4976138;28;20120;-69
2022/03/08 11:13:06;;;;;;;26.02;6.78;;;9.40;63.80;;;;;;4993790;28;20125;-69
2022/03/08 11:15:37;;;;;;;18.92;7.70;;;9.30;82.70;;;;;;4993983;28;20438;-63
2022/03/08 11:18:09;;;;;;;14.38;6.53;;;9.60;69.00;;;;;;4998068;28;20116;-63
2022/03/08 11:20:38;;;;;;;12.25;6.18;;;9.50;63.10;;;;;;5013043;28;20350;-63
2022/03/08 11:23:05;;;;;;;12.60;6.72;;;9.50;62.80;;;;;;4995772;28;20042;-62
2022/03/08 11:25:45;;;;;;;14.77;6.47;;;9.60;62.50;;;;;;4995530;28;20108;-63
2022/03/08 11:28:13;;;;;;;11.93;6.03;;;9.60;63.50;;;;;;5012001;28;20046;-62
2022/03/08 11:30:45;;;;;;;15.45;5.80;;;9.60;63.40;;;;;;5012922;28;20046;-62
2022/03/08 11:33:18;;;;;;;11.35;6.03;;;9.90;73.50;;;;;;5012984;28;20054;-62
2022/03/08 11:35:58;;;;;;;12.93;6.25;;;9.90;81.70;;;;;;4995200;28;20266;-62
2022/03/08 11:38:24;;;;;;;11.98;5.53;;;9.90;80.30;;;;;;5013245;28;20046;-62
2022/03/08 11:40:57;;;;;;;8.60;5.30;;;9.30;60.00;;;;;;4994825;28;20112;-62
2022/03/08 11:43:46;;;;;;;9.70;5.50;;;9.70;79.80;;;;;;5012964;28;20107;-62
2022/03/08 11:46:18;;;;;;;7.55;5.30;;;10.40;66.50;;;;;;5012650;28;20549;-62
2022/03/08 11:49:05;;;;;;;7.50;5.40;;;10.20;60.60;;;;;;5011331;28;20069;-62
2022/03/08 11:51:32;;;;;;;8.52;5.57;;;10.30;79.50;;;;;;5012657;28;20351;-62
2022/03/08 11:54:24;;;;;;;14.88;6.20;;;10.10;80.20;;;;;;5011407;28;20508;-62
2022/03/08 11:56:54;;;;;;;25.73;6.25;;;10.50;61.00;;;;;;5012745;28;20476;-62
2022/03/08 11:59:20;;;;;;;9.27;5.97;;;10.60;60.60;;;;;;5011728;28;20058;-62
2022/03/08 12:01:47;;;;;;;9.18;6.32;;;10.60;79.40;;;;;;5011146;28;20078;-62
2022/03/08 12:04:18;;;;;;;20.73;6.03;;;10.70;59.10;;;;;;4976452;28;1061313;-62
2022/03/08 12:06:58;;;;;;;16.60;5.93;;;10.70;59.60;;;;;;5013394;28;20050;-62
2022/03/08 12:09:25;;;;;;;14.40;5.45;;;10.90;78.20;;;;;;4995979;28;20092;-62
2022/03/08 12:11:57;;;;;;;14.38;5.78;;;10.80;75.60;;;;;;4995637;28;20049;-62
2022/03/08 12:14:30;;;;;;;19.48;5.70;;;11.20;74.70;;;;;;5013128;28;20545;-62
2022/03/08 12:17:11;;;;;;;7.45;4.80;;;11.00;58.80;;;;;;5013329;28;20056;-62
2022/03/08 12:19:40;;;;;;;14.30;5.57;;;11.10;77.10;;;;;;5013401;28;20041;-62
2022/03/08 12:22:19;;;;;;;24.58;6.32;;;10.90;57.10;;;;;;5013166;28;20038;-62
2022/03/08 12:24:50;;;;;;;13.07;5.38;;;11.30;75.70;;;;;;5012938;28;20486;-62
2022/03/08 12:27:18;;;;;;;26.95;6.85;;;10.90;56.60;;;;;;4995559;28;20092;-62
2022/03/08 12:29:46;;;;;;;13.32;6.57;;;11.30;75.90;;;;;;5011769;28;20046;-62
2022/03/08 12:32:25;;;;;;;15.77;7.13;;;10.90;76.00;;;;;;5013039;28;20045;-62
2022/03/08 12:34:53;;;;;;;43.45;8.13;;;11.20;58.50;;;;;;5012970;28;20042;-62
2022/03/08 12:37:31;;;;;;;11.77;6.72;;;10.90;76.20;;;;;;5013068;28;20049;-62
2022/03/08 12:40:10;;;;;;;17.60;7.45;;;11.40;75.80;;;;;;5012623;28;20041;-62
2022/03/08 12:42:55;;;;;;;9.35;6.95;;;11.50;68.80;;;;;;5013398;28;20042;-62
2022/03/08 12:45:29;;;;;;;19.20;7.07;;;11.60;76.30;;;;;;5012775;28;20354;-62
2022/03/08 12:48:08;;;;;;;24.80;7.60;;;11.30;63.80;;;;;;5012531;28;20095;-62
2022/03/08 12:50:38;;;;;;;17.27;6.90;;;11.90;70.00;;;;;;4994711;28;20136;-62
2022/03/08 12:53:18;;;;;;;12.07;6.70;;;11.10;75.90;;;;;;5012406;28;20044;-62
2022/03/08 12:55:51;;;;;;;12.00;6.45;;;11.30;57.30;;;;;;5012481;28;20095;-62
2022/03/08 12:58:20;;;;;;;9.90;6.97;;;11.00;74.20;;;;;;5012907;28;20390;-62
2022/03/08 13:00:54;;;;;;;28.48;7.32;;;11.50;70.40;;;;;;5012444;28;20042;-62
2022/03/08 13:03:22;;;;;;;20.92;6.78;;;11.20;72.40;;;;;;4995246;28;20050;-62
2022/03/08 13:05:53;;;;;;;14.10;6.50;;;11.40;56.30;;;;;;5012127;28;20081;-62
2022/03/08 13:08:21;;;;;;;30.48;7.55;;;12.20;72.80;;;;;;5012312;28;20038;-62